Fullerton, CA

11:53 AM PDT on July 29, 2016 (GMT -0700)
APRSWXNET | | Change Station

Elev 213 ft 33.90 °N, 117.90 °W | Updated 19 minutes ago

Clear
Clear
90 °F
Feels Like 92 °F
N
2
Wind Variable Wind from SSE
Gusts 0.0 mph

Today
High -- | Low -- °F
--% Chance of Precip.
Yesterday
High -- | Low -- °F
Precip. -- in
Pressure 29.83 in
Visibility 10.0 miles
Clouds Clear
Heat Index 92 °F
Dew Point 66 °F
Humidity 45%
Rainfall in
Snow Depth Not available.
6:01 AM 7:54 PM
Waning Crescent, 20% visible
METAR KFUL 291753Z 20006KT 10SM CLR 30/16 A2983 RMK AO2 SLP099 T03000156 10306 20222 58003
Pressure 29.83 in
Visibility 10.0 miles
Clouds Clear
Heat Index 92 °F
Dew Point 66 °F
Humidity 45%
Rainfall in
Snow Depth Not available.
6:01 AM 7:54 PM
Waning Crescent, 20% visible
METAR KFUL 291753Z 20006KT 10SM CLR 30/16 A2983 RMK AO2 SLP099 T03000156 10306 20222 58003

10-Day Weather Forecast

Almanac

Astronomy

Jul. 29, 2016 Rise Set
Actual Time
Civil Twilight
Nautical Twilight
Astronomical Twilight
Moon
Length of Visible Light
Length of Day
Tomorrow will be .
, % of the Moon is Illuminated

Today's Extremes

State Highs State Lows

Community

WunderPhotos

Upload Photos

1,928,393 photos uploaded!

WunderBlog® & News

Nearby

Air Quality

  Air Quality AQ Index Pollutant
Not available.

Snow Depth

Station Depth Elevation

Earthquake Activity

City Distance Mag. Time & Date
Minimum magnitude displayed is 2.5.

Coastal Water Temperatures

Place Temperature

Stations

Nearby Weather Stations

Station Location Temp. Windchill Dew Point Humidity Wind Precip. Elev Updated Type
                   

Watches & Warnings

There are currently no watches in effect.